Acara, Brazil
Current Conditions -  °F | °C
As of 12:00 AM on Sunday 23 Nov 2014 (Local Time) from SBBE Reporting Station
Clear Clear  
Wind Chill: 77°   Ceiling: Unl
Heat Index: 78°   Visibility: 6mi
Dew Point: 72°   Wind: 2mph
Humidity: 83%   Direction: 30°NNE
Pressure: 29.85"   Gusts: NA
Location:  1.96°S, 48.2°W
Report Text: SBBE 230300Z 03002KT CAVOK 25/22 Q1011
Loading
Personal Weather Stations






























Interactive Weather Map New forecast layout! Learn more

10-Day Weather Forecast

Advertisements
Track Severe Weather on mobile